createdAt,value
2018-12-24T00:00:41.078Z,14.60
2018-12-24T00:03:22.039Z,13.83
2018-12-24T00:06:02.671Z,12.87
2018-12-24T00:08:42.935Z,13.30
2018-12-24T00:11:23.522Z,12.33
2018-12-24T00:14:04.262Z,13.30
2018-12-24T00:16:44.923Z,12.50
2018-12-24T00:19:25.780Z,13.90
2018-12-24T00:22:06.300Z,13.13
2018-12-24T00:24:46.630Z,12.93
2018-12-24T00:27:27.696Z,13.17
2018-12-24T00:30:07.918Z,14.87
2018-12-24T00:32:48.599Z,13.97
2018-12-24T00:35:28.885Z,13.63
2018-12-24T00:38:09.280Z,13.90
2018-12-24T00:40:49.868Z,13.77
2018-12-24T00:43:30.746Z,13.63
2018-12-24T00:46:11.143Z,17.17
2018-12-24T00:48:52.089Z,11.97
2018-12-24T00:51:34.003Z,13.33
2018-12-24T00:54:17.975Z,12.23
2018-12-24T00:56:58.318Z,14.73
2018-12-24T00:59:39.171Z,12.53
2018-12-24T01:02:19.843Z,14.60
2018-12-24T01:05:00.524Z,13.60
2018-12-24T01:07:41.140Z,13.90
2018-12-24T01:10:21.956Z,12.40
2018-12-24T01:13:02.469Z,15.93
2018-12-24T01:15:43.923Z,16.57
2018-12-24T01:18:24.367Z,12.67
2018-12-24T01:21:04.898Z,14.33
2018-12-24T01:23:45.293Z,12.97
2018-12-24T01:26:25.866Z,13.83
2018-12-24T01:29:06.733Z,12.23
2018-12-24T01:31:46.997Z,14.43
2018-12-24T01:34:27.538Z,10.93
2018-12-24T01:37:08.010Z,14.10
2018-12-24T01:39:48.731Z,13.23
2018-12-24T01:42:33.445Z,12.97
2018-12-24T01:45:12.323Z,12.47
2018-12-24T01:47:53.081Z,11.73
2018-12-24T01:50:33.347Z,10.70
2018-12-24T01:53:13.934Z,11.87
2018-12-24T01:55:54.180Z,12.87
2018-12-24T01:58:34.550Z,12.50
2018-12-24T02:01:15.035Z,11.37
2018-12-24T02:03:55.519Z,12.93
2018-12-24T02:06:35.958Z,11.40
2018-12-24T02:09:16.711Z,13.67
2018-12-24T02:11:57.376Z,12.97
2018-12-24T02:14:37.868Z,11.60
2018-12-24T02:17:19.330Z,10.90
2018-12-24T02:19:59.792Z,14.10
2018-12-24T02:22:40.165Z,14.43
2018-12-24T02:25:20.419Z,12.70
2018-12-24T02:28:01.249Z,12.57
2018-12-24T02:30:41.686Z,13.43
2018-12-24T02:33:22.175Z,11.87
2018-12-24T02:36:02.507Z,13.70
2018-12-24T02:38:43.195Z,13.87
2018-12-24T02:41:23.396Z,12.53
2018-12-24T02:44:03.831Z,12.43
2018-12-24T02:46:44.304Z,14.07
2018-12-24T02:49:24.522Z,15.10
2018-12-24T02:52:05.183Z,13.83
2018-12-24T02:54:45.542Z,10.43
2018-12-24T02:57:26.127Z,11.73
2018-12-24T03:00:06.678Z,12.90
2018-12-24T03:02:46.770Z,13.47
2018-12-24T03:05:27.507Z,14.07
2018-12-24T03:08:08.179Z,18.10
2018-12-24T03:10:48.450Z,14.23
2018-12-24T03:13:29.040Z,16.33
2018-12-24T03:16:09.671Z,10.30
2018-12-24T03:18:50.134Z,15.60
2018-12-24T03:21:31.409Z,11.80
2018-12-24T03:24:12.002Z,11.20
2018-12-24T03:26:52.451Z,12.20
2018-12-24T03:29:33.200Z,15.50
2018-12-24T03:32:13.547Z,15.77
2018-12-24T03:34:54.458Z,14.23
2018-12-24T03:37:34.599Z,11.00
2018-12-24T03:40:15.365Z,12.43
2018-12-24T03:42:55.543Z,10.13
2018-12-24T03:45:36.176Z,11.87
2018-12-24T03:48:16.695Z,11.67
2018-12-24T03:50:57.159Z,13.27
2018-12-24T03:53:37.584Z,11.03
2018-12-24T03:56:17.923Z,11.00
2018-12-24T03:58:58.694Z,12.40
2018-12-24T04:01:39.608Z,9.43
2018-12-24T04:04:20.603Z,11.50
2018-12-24T04:07:00.634Z,11.73
2018-12-24T04:09:41.136Z,10.53
2018-12-24T04:12:21.966Z,10.63
2018-12-24T04:15:02.470Z,10.70
2018-12-24T04:17:42.781Z,11.23
2018-12-24T04:20:23.063Z,12.03
2018-12-24T04:23:03.562Z,9.57
2018-12-24T04:25:44.263Z,8.90
2018-12-24T04:28:24.726Z,10.43
2018-12-24T04:31:05.187Z,11.17
2018-12-24T04:33:45.842Z,9.97
2018-12-24T04:36:26.399Z,9.80
2018-12-24T04:39:06.775Z,9.23
2018-12-24T04:41:47.404Z,9.43
2018-12-24T04:44:27.637Z,15.53
2018-12-24T04:47:08.326Z,12.80
2018-12-24T04:49:48.662Z,9.83
2018-12-24T04:52:28.797Z,9.23
2018-12-24T04:55:09.050Z,6.97
2018-12-24T04:57:49.566Z,7.93
2018-12-24T05:00:29.955Z,8.33
2018-12-24T05:03:10.396Z,12.10
2018-12-24T05:05:51.089Z,8.50
2018-12-24T05:08:31.364Z,8.20
2018-12-24T05:11:11.847Z,7.10
2018-12-24T05:13:52.275Z,8.93
2018-12-24T05:16:32.874Z,11.47
2018-12-24T05:19:13.311Z,9.13
2018-12-24T05:21:53.619Z,10.07
2018-12-24T05:24:33.998Z,8.27
2018-12-24T05:27:14.409Z,10.87
2018-12-24T05:29:55.319Z,10.13
2018-12-24T05:32:35.674Z,8.43
2018-12-24T05:35:16.304Z,8.53
2018-12-24T05:37:56.739Z,8.47
2018-12-24T05:40:37.153Z,8.63
2018-12-24T05:43:17.962Z,8.43
2018-12-24T05:45:58.258Z,7.67
2018-12-24T05:48:38.461Z,8.00
2018-12-24T05:51:18.682Z,8.77
2018-12-24T05:53:59.605Z,7.60
2018-12-24T05:56:39.931Z,7.87
2018-12-24T05:59:20.577Z,7.23
2018-12-24T06:02:01.165Z,6.73
2018-12-24T06:04:41.746Z,8.73
2018-12-24T06:07:22.106Z,9.33
2018-12-24T06:10:03.117Z,8.60
2018-12-24T06:12:43.562Z,8.17
2018-12-24T06:15:23.933Z,10.73
2018-12-24T06:18:04.136Z,7.70
2018-12-24T06:20:44.490Z,8.27
2018-12-24T06:23:24.858Z,7.47
2018-12-24T06:26:05.500Z,7.60
2018-12-24T06:28:45.935Z,6.90
2018-12-24T06:31:27.884Z,9.60
2018-12-24T06:34:08.157Z,7.37
2018-12-24T06:36:48.654Z,8.60
2018-12-24T06:39:29.217Z,7.23
2018-12-24T06:42:09.687Z,8.80
2018-12-24T06:44:50.005Z,8.37
2018-12-24T06:47:30.263Z,8.07
2018-12-24T06:50:10.893Z,6.87
2018-12-24T06:52:51.553Z,8.57
2018-12-24T06:55:31.939Z,7.87
2018-12-24T06:58:12.174Z,6.77
2018-12-24T07:00:52.810Z,7.10
2018-12-24T07:03:32.998Z,7.13
2018-12-24T07:06:13.335Z,7.20
2018-12-24T07:08:54.019Z,8.53
2018-12-24T07:11:34.715Z,7.47
2018-12-24T07:14:15.805Z,8.90
2018-12-24T07:16:55.950Z,8.63
2018-12-24T07:19:37.054Z,7.70
2018-12-24T07:22:17.342Z,7.47
2018-12-24T07:24:57.717Z,8.63
2018-12-24T07:27:38.070Z,6.70
2018-12-24T07:30:18.300Z,6.93
2018-12-24T07:32:58.712Z,7.40
2018-12-24T07:35:39.254Z,6.33
2018-12-24T07:38:19.498Z,8.73
2018-12-24T07:40:59.968Z,8.17
2018-12-24T07:43:40.453Z,8.13
2018-12-24T07:46:20.720Z,8.90
2018-12-24T07:49:04.276Z,8.90
2018-12-24T07:51:50.208Z,8.83
2018-12-24T07:54:31.910Z,8.50
2018-12-24T07:57:13.240Z,7.53
2018-12-24T07:59:54.852Z,8.83
2018-12-24T08:02:36.429Z,9.30
2018-12-24T08:05:16.937Z,8.10
2018-12-24T08:07:57.142Z,8.67
2018-12-24T08:10:37.706Z,9.53
2018-12-24T08:13:18.300Z,12.53
2018-12-24T08:15:59.388Z,9.30
2018-12-24T08:18:40.158Z,9.30
2018-12-24T08:21:21.261Z,13.03
2018-12-24T08:24:01.396Z,12.27
2018-12-24T08:26:41.778Z,9.83
2018-12-24T08:29:22.328Z,12.10
2018-12-24T08:32:02.952Z,9.90
2018-12-24T08:34:43.911Z,12.57
2018-12-24T08:37:22.947Z,12.10
2018-12-24T08:40:03.198Z,9.47
2018-12-24T08:42:43.430Z,11.07
2018-12-24T08:45:24.060Z,9.30
2018-12-24T08:48:04.407Z,8.87
2018-12-24T08:50:45.084Z,10.60
2018-12-24T08:53:25.654Z,9.87
2018-12-24T08:56:06.322Z,10.60
2018-12-24T08:58:46.822Z,8.77
2018-12-24T09:01:27.227Z,10.30
2018-12-24T09:04:07.781Z,9.70
2018-12-24T09:06:48.234Z,10.97
2018-12-24T09:09:28.599Z,10.17
2018-12-24T09:12:09.200Z,10.03
2018-12-24T09:14:50.326Z,10.37
2018-12-24T09:17:30.973Z,11.50
2018-12-24T09:20:12.333Z,10.47
2018-12-24T09:22:53.469Z,14.40
2018-12-24T09:25:34.864Z,22.40
2018-12-24T09:28:16.233Z,25.03
2018-12-24T09:30:56.721Z,27.13
2018-12-24T09:33:38.230Z,27.80
2018-12-24T09:36:18.823Z,32.80
2018-12-24T09:38:59.918Z,20.83
2018-12-24T09:41:40.113Z,15.60
2018-12-24T09:44:21.193Z,17.87
2018-12-24T09:47:01.474Z,12.10
2018-12-24T09:49:42.697Z,15.10
2018-12-24T09:52:23.640Z,13.10
2018-12-24T09:55:04.162Z,14.30
2018-12-24T09:57:44.480Z,11.47
2018-12-24T10:00:25.405Z,11.73
2018-12-24T10:03:06.478Z,11.90
2018-12-24T10:05:46.660Z,13.73
2018-12-24T10:08:27.127Z,12.23
2018-12-24T10:11:07.437Z,12.93
2018-12-24T10:13:47.591Z,12.27
2018-12-24T10:16:28.238Z,11.13
2018-12-24T10:19:09.251Z,12.07
2018-12-24T10:21:49.806Z,11.63
2018-12-24T10:24:30.398Z,15.33
2018-12-24T10:27:58.566Z,16.77
2018-12-24T10:30:38.898Z,13.53
2018-12-24T10:33:19.007Z,15.67
2018-12-24T10:35:59.020Z,12.07
2018-12-24T10:38:39.156Z,14.17
2018-12-24T10:41:19.193Z,14.57
2018-12-24T10:43:59.247Z,17.53
2018-12-24T10:46:39.655Z,15.37
2018-12-24T10:49:20.351Z,15.30
2018-12-24T10:52:00.366Z,13.50
2018-12-24T10:54:40.405Z,14.20
2018-12-24T10:57:21.127Z,12.83
2018-12-24T11:00:01.810Z,15.20
2018-12-24T11:02:42.732Z,12.13
2018-12-24T11:05:22.672Z,12.40
2018-12-24T11:08:02.668Z,12.83
2018-12-24T11:10:42.721Z,14.83
2018-12-24T11:13:22.677Z,14.73
2018-12-24T11:16:03.000Z,15.43
2018-12-24T11:18:44.204Z,17.93
2018-12-24T11:21:25.279Z,14.13
2018-12-24T11:24:07.426Z,15.40
2018-12-24T11:26:48.161Z,18.80
2018-12-24T11:29:28.029Z,13.60
2018-12-24T11:32:08.084Z,15.93
2018-12-24T11:34:48.050Z,13.13
2018-12-24T11:37:28.102Z,15.03
2018-12-24T11:40:08.054Z,17.93
2018-12-24T11:42:48.474Z,18.93
2018-12-24T11:45:33.843Z,20.57
2018-12-24T11:48:11.174Z,14.37
2018-12-24T11:50:51.442Z,13.73
2018-12-24T11:53:31.418Z,15.17
2018-12-24T11:56:11.617Z,16.23
2018-12-24T11:58:51.778Z,13.73
2018-12-24T12:01:31.830Z,16.47
2018-12-24T12:04:11.889Z,16.30
2018-12-24T12:06:52.115Z,14.07
2018-12-24T12:09:33.290Z,15.00
2018-12-24T12:12:13.915Z,17.87
2018-12-24T12:14:53.935Z,15.10
2018-12-24T12:17:34.014Z,14.23
2018-12-24T12:20:13.870Z,15.73
2018-12-24T12:22:54.688Z,17.70
2018-12-24T12:25:35.012Z,14.90
2018-12-24T12:28:17.135Z,13.20
2018-12-24T12:30:56.996Z,14.13
2018-12-24T12:33:36.900Z,13.43
2018-12-24T12:36:17.146Z,15.27
2018-12-24T12:38:57.654Z,11.53
2018-12-24T12:41:38.030Z,13.90
2018-12-24T12:44:18.167Z,11.70
2018-12-24T12:46:58.225Z,15.93
2018-12-24T12:49:38.165Z,14.83
2018-12-24T12:54:28.286Z,13.47
2018-12-24T12:56:56.199Z,13.40
2018-12-24T12:59:25.157Z,13.20
2018-12-24T13:01:53.198Z,16.77
2018-12-24T13:04:21.496Z,13.20
2018-12-24T13:06:49.514Z,12.67
2018-12-24T13:09:18.070Z,14.70
2018-12-24T13:11:46.017Z,12.87
2018-12-24T13:14:13.819Z,13.23
2018-12-24T13:16:41.765Z,13.80
2018-12-24T13:19:09.683Z,14.47
2018-12-24T13:21:37.498Z,14.07
2018-12-24T13:24:05.988Z,13.10
2018-12-24T13:26:33.898Z,13.43
2018-12-24T13:29:02.453Z,12.50
2018-12-24T13:31:31.326Z,13.50
2018-12-24T13:33:59.719Z,14.53
2018-12-24T13:36:28.307Z,15.63
2018-12-24T13:38:57.136Z,14.83
2018-12-24T13:41:26.166Z,14.37
2018-12-24T13:43:54.079Z,14.17
2018-12-24T13:46:22.235Z,14.27
2018-12-24T13:48:50.061Z,18.83
2018-12-24T13:51:17.887Z,12.70
2018-12-24T13:53:47.435Z,15.17
2018-12-24T13:56:15.981Z,12.10
2018-12-24T13:58:43.928Z,17.53
2018-12-24T14:01:12.994Z,14.47
2018-12-24T14:03:41.374Z,16.37
2018-12-24T14:06:09.945Z,15.53
2018-12-24T14:08:37.817Z,14.53
2018-12-24T14:11:05.795Z,15.10
2018-12-24T14:13:34.282Z,14.73
2018-12-24T14:16:02.999Z,11.43
2018-12-24T14:18:31.660Z,14.27
2018-12-24T14:21:00.345Z,15.37
2018-12-24T14:23:28.744Z,19.17
2018-12-24T14:25:57.556Z,14.30
2018-12-24T14:28:26.205Z,11.90
2018-12-24T14:30:54.929Z,12.70
2018-12-24T14:33:25.465Z,15.50
2018-12-24T14:35:54.010Z,14.10
2018-12-24T14:38:22.811Z,17.47
2018-12-24T14:40:51.412Z,14.23
2018-12-24T14:43:22.399Z,14.67
2018-12-24T14:45:55.854Z,14.70
2018-12-24T14:48:25.843Z,15.50
2018-12-24T14:50:54.824Z,14.87
2018-12-24T14:53:23.317Z,14.60
2018-12-24T14:55:51.983Z,17.20
2018-12-24T14:58:20.871Z,13.87
2018-12-24T15:00:49.848Z,16.87
2018-12-24T15:03:19.068Z,17.07
2018-12-24T15:05:48.494Z,14.73
2018-12-24T15:08:17.108Z,16.73
2018-12-24T15:10:45.637Z,15.53
2018-12-24T15:13:14.239Z,14.17
2018-12-24T15:15:43.313Z,12.90
2018-12-24T15:18:12.110Z,26.33
2018-12-24T15:20:39.948Z,65.73
2018-12-24T15:23:08.487Z,23.53
2018-12-24T15:25:37.453Z,19.67
2018-12-24T15:28:05.719Z,17.93
2018-12-24T15:30:33.715Z,23.03
2018-12-24T15:33:02.275Z,15.27
2018-12-24T15:35:30.724Z,13.50
2018-12-24T15:37:59.263Z,15.73
2018-12-24T15:40:27.918Z,14.37
2018-12-24T15:42:56.594Z,13.70
2018-12-24T15:45:25.601Z,18.87
2018-12-24T15:47:54.399Z,16.30
2018-12-24T15:50:22.892Z,15.67
2018-12-24T15:52:51.577Z,15.87
2018-12-24T15:55:20.126Z,17.13
2018-12-24T15:57:48.737Z,16.23
2018-12-24T16:00:19.081Z,13.03
2018-12-24T16:02:48.627Z,13.37
2018-12-24T16:05:17.727Z,13.93
2018-12-24T16:07:46.361Z,12.97
2018-12-24T16:10:15.075Z,13.20
2018-12-24T16:12:43.498Z,13.57
2018-12-24T16:15:12.264Z,14.63
2018-12-24T16:17:41.467Z,16.40
2018-12-24T16:20:10.172Z,16.73
2018-12-24T16:22:39.599Z,16.93
2018-12-24T16:25:08.639Z,16.10
2018-12-24T16:27:37.052Z,13.27
2018-12-24T16:30:06.782Z,16.30
2018-12-24T16:32:35.036Z,14.63
2018-12-24T16:35:02.864Z,13.13
2018-12-24T16:37:31.611Z,13.57
2018-12-24T16:40:00.270Z,14.20
2018-12-24T16:42:28.943Z,17.23
2018-12-24T16:44:57.461Z,15.77
2018-12-24T16:47:26.832Z,13.97
2018-12-24T16:49:55.608Z,15.77
2018-12-24T16:52:27.403Z,17.40
2018-12-24T16:54:56.266Z,15.03
2018-12-24T16:57:25.166Z,17.40
2018-12-24T16:59:54.509Z,16.20
2018-12-24T17:02:23.770Z,16.00
2018-12-24T17:04:52.244Z,15.97
2018-12-24T17:07:22.397Z,16.17
2018-12-24T17:09:51.019Z,14.83
2018-12-24T17:12:19.806Z,17.50
2018-12-24T17:14:48.559Z,16.67
2018-12-24T17:17:17.581Z,17.63
2018-12-24T17:19:46.478Z,16.90
2018-12-24T17:22:15.246Z,17.97
2018-12-24T17:24:44.051Z,18.37
2018-12-24T17:27:12.853Z,15.63
2018-12-24T17:29:41.570Z,15.10
2018-12-24T17:32:10.947Z,18.97
2018-12-24T17:34:39.505Z,17.47
2018-12-24T17:37:08.242Z,17.87
2018-12-24T17:39:36.574Z,17.80
2018-12-24T17:42:04.913Z,20.13
2018-12-24T17:44:33.907Z,23.67
2018-12-24T17:47:02.513Z,25.83
2018-12-24T17:49:31.227Z,19.90
2018-12-24T17:51:59.929Z,21.80
2018-12-24T17:54:28.579Z,25.00
2018-12-24T17:56:57.669Z,43.13
2018-12-24T17:59:26.180Z,39.97
2018-12-24T18:01:55.038Z,35.23
2018-12-24T18:04:23.736Z,48.27
2018-12-24T18:06:52.241Z,54.23
2018-12-24T18:09:20.895Z,54.07
2018-12-24T18:11:49.577Z,52.20
2018-12-24T18:14:18.280Z,46.30
2018-12-24T18:16:46.957Z,39.70
2018-12-24T18:19:16.762Z,33.97
2018-12-24T18:21:44.961Z,33.73
2018-12-24T18:24:13.642Z,30.00
2018-12-24T18:26:42.304Z,32.37
2018-12-24T18:29:11.000Z,27.60
2018-12-24T18:31:39.831Z,32.93
2018-12-24T18:34:08.580Z,32.43
2018-12-24T18:36:37.281Z,27.70
2018-12-24T18:39:06.966Z,24.40
2018-12-24T18:41:35.657Z,27.37
2018-12-24T18:44:04.352Z,50.33
2018-12-24T18:46:33.625Z,42.97
2018-12-24T18:49:02.530Z,66.13
2018-12-24T18:51:31.239Z,36.77
2018-12-24T18:53:59.897Z,37.23
2018-12-24T18:56:29.310Z,26.87
2018-12-24T18:58:57.905Z,24.03
2018-12-24T19:01:26.769Z,18.53
2018-12-24T19:03:56.075Z,20.13
2018-12-24T19:06:27.034Z,20.17
2018-12-24T19:08:55.272Z,19.67
2018-12-24T19:11:23.967Z,19.93
2018-12-24T19:13:53.412Z,18.27
2018-12-24T19:16:21.746Z,18.83
2018-12-24T19:18:51.466Z,18.00
2018-12-24T19:21:20.185Z,15.73
2018-12-24T19:23:48.829Z,16.07
2018-12-24T19:26:17.528Z,17.17
2018-12-24T19:28:46.217Z,14.23
2018-12-24T19:31:19.027Z,13.07
2018-12-24T19:33:47.882Z,13.73
2018-12-24T19:36:16.589Z,15.43
2018-12-24T19:38:45.261Z,13.13
2018-12-24T19:41:13.912Z,13.20
2018-12-24T19:43:42.646Z,13.80
2018-12-24T19:46:10.880Z,13.07
2018-12-24T19:48:39.577Z,12.77
2018-12-24T19:51:08.200Z,11.07
2018-12-24T19:53:36.750Z,11.83
2018-12-24T19:56:05.836Z,12.97
2018-12-24T19:58:34.237Z,12.10
2018-12-24T20:01:02.872Z,12.93
2018-12-24T20:03:31.065Z,18.83
2018-12-24T20:05:59.778Z,19.23
2018-12-24T20:08:28.469Z,23.53
2018-12-24T20:10:57.145Z,23.70
2018-12-24T20:13:26.114Z,17.70
2018-12-24T20:15:54.554Z,22.60
2018-12-24T20:18:33.261Z,27.70
2018-12-24T20:21:01.918Z,26.47
2018-12-24T20:23:38.061Z,17.37
2018-12-24T20:26:13.542Z,21.37
2018-12-24T20:28:42.122Z,16.27
2018-12-24T20:31:17.560Z,15.83
2018-12-24T20:33:46.986Z,17.80
2018-12-24T20:36:15.537Z,12.73
2018-12-24T20:38:44.217Z,13.10
2018-12-24T20:41:12.936Z,12.40
2018-12-24T20:43:41.589Z,11.50
2018-12-24T20:46:10.083Z,13.00
2018-12-24T20:48:38.793Z,13.23
2018-12-24T20:51:15.943Z,14.90
2018-12-24T20:53:37.761Z,21.13
2018-12-24T20:56:06.486Z,13.23
2018-12-24T20:58:35.535Z,11.27
2018-12-24T21:01:03.841Z,10.57
2018-12-24T21:03:32.656Z,12.03
2018-12-24T21:06:01.199Z,12.03
2018-12-24T21:08:35.235Z,11.17
2018-12-24T21:11:03.889Z,12.13
2018-12-24T21:13:32.565Z,12.37
2018-12-24T21:16:01.073Z,12.80
2018-12-24T21:18:29.741Z,13.50
2018-12-24T21:20:57.999Z,15.23
2018-12-24T21:23:26.715Z,14.27
2018-12-24T21:25:55.387Z,15.30
2018-12-24T21:28:24.070Z,15.23
2018-12-24T21:30:52.783Z,15.30
2018-12-24T21:33:21.431Z,17.13
2018-12-24T21:35:50.149Z,16.70
2018-12-24T21:38:18.670Z,18.50
2018-12-24T21:40:46.867Z,16.97
2018-12-24T21:43:15.561Z,18.00
2018-12-24T21:45:44.271Z,18.37
2018-12-24T21:48:13.109Z,16.70
2018-12-24T21:50:41.640Z,16.50
2018-12-24T21:53:09.479Z,16.23
2018-12-24T21:55:37.282Z,17.43
2018-12-24T21:58:05.864Z,16.87
2018-12-24T22:00:34.389Z,16.33
2018-12-24T22:03:02.314Z,15.73
2018-12-24T22:05:30.686Z,15.67
2018-12-24T22:07:59.382Z,20.70
2018-12-24T22:10:31.722Z,15.53
2018-12-24T22:13:00.435Z,15.23
2018-12-24T22:15:29.124Z,16.63
2018-12-24T22:17:58.296Z,15.57
2018-12-24T22:20:27.099Z,20.63
2018-12-24T22:22:56.287Z,16.13
2018-12-24T22:25:24.798Z,15.40
2018-12-24T22:27:53.382Z,22.07
2018-12-24T22:30:21.414Z,15.00
2018-12-24T22:32:49.889Z,15.67
2018-12-24T22:35:18.629Z,13.93
2018-12-24T22:37:47.290Z,14.80
2018-12-24T22:40:15.534Z,13.23
2018-12-24T22:42:44.043Z,13.77
2018-12-24T22:45:12.713Z,15.90
2018-12-24T22:47:41.640Z,14.70
2018-12-24T22:50:10.028Z,14.93
2018-12-24T22:52:38.786Z,15.67
2018-12-24T22:55:07.454Z,13.60
2018-12-24T22:57:35.897Z,15.57
2018-12-24T23:00:07.385Z,15.30
2018-12-24T23:02:36.198Z,15.37
2018-12-24T23:05:04.540Z,14.47
2018-12-24T23:07:32.350Z,18.57
2018-12-24T23:10:00.258Z,18.03
2018-12-24T23:12:28.048Z,15.20
2018-12-24T23:14:55.863Z,20.57
2018-12-24T23:17:23.719Z,28.60
2018-12-24T23:19:51.587Z,19.60
2018-12-24T23:22:19.407Z,21.30
2018-12-24T23:24:47.339Z,22.97
2018-12-24T23:27:15.237Z,23.13
2018-12-24T23:29:43.142Z,25.70
2018-12-24T23:32:11.054Z,25.63
2018-12-24T23:34:38.985Z,23.07
2018-12-24T23:37:06.794Z,25.30
2018-12-24T23:39:34.638Z,27.47
2018-12-24T23:42:02.439Z,23.80
2018-12-24T23:44:30.245Z,27.53
2018-12-24T23:46:58.074Z,31.70
2018-12-24T23:49:25.875Z,28.23
2018-12-24T23:51:53.853Z,26.70
2018-12-24T23:54:22.429Z,24.97
2018-12-24T23:56:51.125Z,25.53
2018-12-24T23:59:19.347Z,33.73
